createdAt,value
2023-02-22T00:01:50.582Z,99.75
2023-02-22T00:04:21.116Z,99.81
2023-02-22T00:06:48.891Z,99.61
2023-02-22T00:09:20.470Z,99.81
2023-02-22T00:11:48.755Z,99.77
2023-02-22T00:14:20.211Z,99.58
2023-02-22T00:16:47.251Z,99.63
2023-02-22T00:19:14.565Z,99.60
2023-02-22T00:21:41.777Z,99.43
2023-02-22T00:24:23.034Z,99.66
2023-02-22T00:26:57.678Z,99.66
2023-02-22T00:29:25.484Z,99.59
2023-02-22T00:31:52.686Z,99.77
2023-02-22T00:34:19.730Z,99.71
2023-02-22T00:36:48.632Z,99.53
2023-02-22T00:39:15.954Z,99.45
2023-02-22T00:41:43.437Z,99.46
2023-02-22T00:44:10.716Z,99.56
2023-02-22T00:46:37.946Z,99.28
2023-02-22T00:49:05.251Z,99.32
2023-02-22T00:51:33.809Z,99.27
2023-02-22T00:54:00.710Z,99.26
2023-02-22T00:56:27.780Z,98.98
2023-02-22T00:58:54.946Z,98.78
2023-02-22T01:01:24.119Z,98.29
2023-02-22T01:03:51.600Z,97.88
2023-02-22T01:06:19.029Z,97.54
2023-02-22T01:08:47.013Z,97.75
2023-02-22T01:11:15.996Z,97.83
2023-02-22T01:13:45.264Z,97.89
2023-02-22T01:16:12.426Z,97.60
2023-02-22T01:18:39.712Z,97.76
2023-02-22T01:21:06.923Z,97.44
2023-02-22T01:23:33.973Z,97.59
2023-02-22T01:26:01.355Z,97.59
2023-02-22T01:28:29.155Z,97.74
2023-02-22T01:30:56.814Z,97.57
2023-02-22T01:33:23.760Z,97.75
2023-02-22T01:35:51.194Z,97.86
2023-02-22T01:38:18.387Z,97.90
2023-02-22T01:40:49.479Z,98.28
2023-02-22T01:43:28.048Z,98.47
2023-02-22T01:46:08.147Z,98.80
2023-02-22T01:48:38.722Z,98.64
2023-02-22T01:51:11.138Z,98.64
2023-02-22T01:53:50.822Z,98.38
2023-02-22T01:56:19.220Z,98.73
2023-02-22T01:58:50.927Z,98.79
2023-02-22T02:01:19.880Z,99.08
2023-02-22T02:03:49.123Z,99.06
2023-02-22T02:06:16.851Z,98.76
2023-02-22T02:09:14.768Z,98.76
2023-02-22T02:11:42.099Z,99.17
2023-02-22T02:14:10.551Z,99.46
2023-02-22T02:16:43.581Z,99.78
2023-02-22T02:19:39.788Z,99.97
2023-02-22T02:22:19.454Z,100.00
2023-02-22T02:25:05.093Z,100.00
2023-02-22T02:28:01.417Z,100.00
2023-02-22T02:30:59.620Z,100.00
2023-02-22T02:33:44.809Z,100.00
2023-02-22T02:36:17.565Z,100.00
2023-02-22T02:38:54.492Z,100.00
2023-02-22T02:41:33.690Z,100.00
2023-02-22T02:44:05.754Z,100.00
2023-02-22T02:46:37.236Z,100.00
2023-02-22T02:49:15.424Z,100.00
2023-02-22T02:51:47.241Z,100.00
2023-02-22T02:54:15.244Z,100.00
2023-02-22T02:56:45.265Z,100.00
2023-02-22T02:59:33.609Z,100.00
2023-02-22T03:02:30.866Z,100.00
2023-02-22T03:05:07.381Z,100.00
2023-02-22T03:07:49.938Z,100.00
2023-02-22T03:10:19.885Z,100.00
2023-02-22T03:13:05.063Z,100.00
2023-02-22T03:15:53.258Z,100.00
2023-02-22T03:18:42.813Z,100.00
2023-02-22T03:21:27.583Z,100.00
2023-02-22T03:24:10.272Z,100.00
2023-02-22T03:27:11.754Z,100.00
2023-02-22T03:29:43.220Z,100.00
2023-02-22T03:32:15.910Z,100.00
2023-02-22T03:34:52.595Z,100.00
2023-02-22T03:37:23.561Z,100.00
2023-02-22T03:39:54.725Z,100.00
2023-02-22T03:42:26.017Z,100.00
2023-02-22T03:44:57.831Z,100.00
2023-02-22T03:47:37.782Z,100.00
2023-02-22T03:50:35.707Z,100.00
2023-02-22T03:53:03.733Z,100.00
2023-02-22T03:55:31.417Z,100.00
2023-02-22T03:57:59.968Z,100.00
2023-02-22T04:00:30.583Z,100.00
2023-02-22T04:02:57.799Z,100.00
2023-02-22T04:05:26.073Z,100.00
2023-02-22T04:07:54.185Z,100.00
2023-02-22T04:10:21.307Z,100.00
2023-02-22T04:12:48.616Z,100.00
2023-02-22T04:15:18.540Z,100.00
2023-02-22T04:17:45.720Z,100.00
2023-02-22T04:20:13.606Z,100.00
2023-02-22T04:22:41.205Z,100.00
2023-02-22T04:25:08.629Z,100.00
2023-02-22T04:27:35.685Z,100.00
2023-02-22T04:30:02.863Z,100.00
2023-02-22T04:32:30.118Z,100.00
2023-02-22T04:34:57.108Z,100.00
2023-02-22T04:37:24.422Z,100.00
2023-02-22T04:39:51.632Z,100.00
2023-02-22T04:42:19.275Z,100.00
2023-02-22T04:44:46.168Z,100.00
2023-02-22T04:47:13.148Z,100.00
2023-02-22T04:49:40.002Z,100.00
2023-02-22T04:52:06.999Z,100.00
2023-02-22T04:54:34.213Z,100.00
2023-02-22T04:57:01.214Z,100.00
2023-02-22T04:59:28.356Z,100.00
2023-02-22T05:01:55.554Z,100.00
2023-02-22T05:04:22.758Z,100.00
2023-02-22T05:06:49.843Z,100.00
2023-02-22T05:09:16.882Z,100.00
2023-02-22T05:11:43.792Z,100.00
2023-02-22T05:14:10.892Z,100.00
2023-02-22T05:16:38.008Z,100.00
2023-02-22T05:19:04.962Z,100.00
2023-02-22T05:21:31.923Z,100.00
2023-02-22T05:23:58.946Z,100.00
2023-02-22T05:26:26.031Z,100.00
2023-02-22T05:28:53.440Z,100.00
2023-02-22T05:31:20.661Z,100.00
2023-02-22T05:33:48.405Z,100.00
2023-02-22T05:36:16.712Z,100.00
2023-02-22T05:38:45.088Z,100.00
2023-02-22T05:41:13.369Z,100.00
2023-02-22T05:43:41.045Z,100.00
2023-02-22T05:46:08.285Z,100.00
2023-02-22T05:48:35.245Z,100.00
2023-02-22T05:51:02.667Z,100.00
2023-02-22T05:53:29.443Z,100.00
2023-02-22T05:55:56.322Z,100.00
2023-02-22T05:58:23.749Z,100.00
2023-02-22T06:00:50.873Z,100.00
2023-02-22T06:03:17.890Z,100.00
2023-02-22T06:05:45.247Z,100.00
2023-02-22T06:08:12.278Z,100.00
2023-02-22T06:10:39.350Z,100.00
2023-02-22T06:13:06.849Z,100.00
2023-02-22T06:15:34.087Z,100.00
2023-02-22T06:18:01.840Z,100.00
2023-02-22T06:20:30.258Z,100.00
2023-02-22T06:22:59.022Z,100.00
2023-02-22T06:25:27.954Z,100.00
2023-02-22T06:27:54.893Z,100.00
2023-02-22T06:30:24.254Z,100.00
2023-02-22T06:32:51.423Z,100.00
2023-02-22T06:35:18.987Z,100.00
2023-02-22T06:37:45.782Z,100.00
2023-02-22T06:40:13.250Z,100.00
2023-02-22T06:42:40.383Z,100.00
2023-02-22T06:45:08.444Z,100.00
2023-02-22T06:47:39.760Z,100.00
2023-02-22T06:50:07.596Z,100.00
2023-02-22T06:52:34.576Z,100.00
2023-02-22T06:55:01.416Z,100.00
2023-02-22T06:57:28.271Z,100.00
2023-02-22T06:59:55.399Z,100.00
2023-02-22T07:02:22.252Z,100.00
2023-02-22T07:04:49.420Z,100.00
2023-02-22T07:07:16.852Z,100.00
2023-02-22T07:09:46.546Z,100.00
2023-02-22T07:12:13.705Z,100.00
2023-02-22T07:14:40.378Z,100.00
2023-02-22T07:17:07.635Z,100.00
2023-02-22T07:19:34.770Z,100.00
2023-02-22T07:22:01.879Z,100.00
2023-02-22T07:24:28.889Z,100.00
2023-02-22T07:27:01.338Z,100.00
2023-02-22T07:29:28.237Z,100.00
2023-02-22T07:31:55.726Z,100.00
2023-02-22T07:34:22.914Z,100.00
2023-02-22T07:36:49.998Z,100.00
2023-02-22T07:39:17.179Z,100.00
2023-02-22T07:41:44.105Z,100.00
2023-02-22T07:44:11.064Z,100.00
2023-02-22T07:46:37.825Z,100.00
2023-02-22T07:49:05.251Z,100.00
2023-02-22T07:51:33.091Z,100.00
2023-02-22T07:54:00.249Z,100.00
2023-02-22T07:56:26.928Z,100.00
2023-02-22T07:58:54.515Z,100.00
2023-02-22T08:01:21.624Z,100.00
2023-02-22T08:03:48.548Z,100.00
2023-02-22T08:06:15.459Z,100.00
2023-02-22T08:08:42.821Z,100.00
2023-02-22T08:11:09.949Z,100.00
2023-02-22T08:13:38.464Z,100.00
2023-02-22T08:16:05.731Z,100.00
2023-02-22T08:18:32.574Z,100.00
2023-02-22T08:20:59.277Z,100.00
2023-02-22T08:23:26.958Z,100.00
2023-02-22T08:25:54.426Z,100.00
2023-02-22T08:28:23.599Z,99.97
2023-02-22T08:30:51.749Z,99.75
2023-02-22T08:33:20.043Z,98.92
2023-02-22T08:35:51.690Z,98.02
2023-02-22T08:38:28.516Z,97.69
2023-02-22T08:40:55.935Z,97.38
2023-02-22T08:43:23.397Z,97.35
2023-02-22T08:45:51.561Z,97.15
2023-02-22T08:48:19.128Z,96.93
2023-02-22T08:50:46.668Z,96.25
2023-02-22T08:53:15.238Z,95.45
2023-02-22T08:55:43.093Z,94.86
2023-02-22T08:58:10.607Z,95.01
2023-02-22T09:00:39.152Z,95.67
2023-02-22T09:03:13.093Z,95.74
2023-02-22T09:05:40.676Z,94.88
2023-02-22T09:08:07.373Z,94.37
2023-02-22T09:10:35.054Z,93.44
2023-02-22T09:13:02.535Z,92.58
2023-02-22T09:15:30.112Z,91.91
2023-02-22T09:17:57.490Z,90.82
2023-02-22T09:20:25.026Z,90.51
2023-02-22T09:22:53.093Z,89.96
2023-02-22T09:25:22.786Z,89.09
2023-02-22T09:27:51.305Z,88.75
2023-02-22T09:30:33.354Z,89.40
2023-02-22T09:33:03.588Z,89.00
2023-02-22T09:35:30.730Z,88.57
2023-02-22T09:37:58.958Z,88.94
2023-02-22T09:40:30.086Z,88.81
2023-02-22T09:43:08.098Z,88.92
2023-02-22T09:45:44.921Z,89.14
2023-02-22T09:48:21.775Z,88.25
2023-02-22T09:50:52.866Z,87.96
2023-02-22T09:53:30.859Z,88.45
2023-02-22T09:56:04.609Z,87.55
2023-02-22T09:58:36.715Z,87.27
2023-02-22T10:01:32.027Z,86.19
2023-02-22T10:04:18.719Z,85.15
2023-02-22T10:07:14.211Z,85.03
2023-02-22T10:09:43.385Z,84.39
2023-02-22T10:12:15.217Z,83.83
2023-02-22T10:15:13.083Z,83.31
2023-02-22T10:18:17.509Z,83.07
2023-02-22T10:21:02.379Z,82.41
2023-02-22T10:23:55.966Z,81.34
2023-02-22T10:26:26.780Z,82.24
2023-02-22T10:29:17.360Z,81.45
2023-02-22T10:31:52.374Z,80.24
2023-02-22T10:34:29.815Z,80.50
2023-02-22T10:37:18.085Z,79.90
2023-02-22T10:39:46.782Z,79.51
2023-02-22T10:42:13.934Z,79.22
2023-02-22T10:44:40.820Z,79.07
2023-02-22T10:47:10.878Z,78.96
2023-02-22T10:49:44.431Z,77.60
2023-02-22T10:52:20.179Z,76.90
2023-02-22T10:54:50.299Z,75.83
2023-02-22T10:57:22.894Z,75.19
2023-02-22T10:59:51.995Z,74.32
2023-02-22T11:02:21.462Z,73.79
2023-02-22T11:04:53.559Z,74.26
2023-02-22T11:07:29.872Z,72.94
2023-02-22T11:09:59.957Z,71.82
2023-02-22T11:12:29.930Z,71.22
2023-02-22T11:14:57.160Z,71.50
2023-02-22T11:17:34.600Z,71.91
2023-02-22T11:20:01.715Z,70.48
2023-02-22T11:22:41.195Z,69.65
2023-02-22T11:25:08.658Z,69.12
2023-02-22T11:27:40.302Z,69.52
2023-02-22T11:30:17.678Z,69.01
2023-02-22T11:32:48.444Z,69.06
2023-02-22T11:35:29.905Z,69.19
2023-02-22T11:38:12.373Z,68.73
2023-02-22T11:40:40.158Z,68.86
2023-02-22T11:43:12.049Z,68.93
2023-02-22T11:45:44.153Z,68.87
2023-02-22T11:48:21.005Z,68.34
2023-02-22T11:51:16.509Z,67.96
2023-02-22T11:54:25.438Z,67.29
2023-02-22T11:56:55.854Z,66.79
2023-02-22T12:00:01.806Z,66.54
2023-02-22T12:02:57.169Z,65.74
2023-02-22T12:05:40.498Z,65.54
2023-02-22T12:08:36.723Z,65.23
2023-02-22T12:11:10.133Z,64.52
2023-02-22T12:13:59.664Z,64.34
2023-02-22T12:16:45.026Z,63.81
2023-02-22T12:19:34.987Z,63.35
2023-02-22T12:22:09.935Z,62.56
2023-02-22T12:24:46.826Z,62.00
2023-02-22T12:27:37.050Z,61.16
2023-02-22T12:30:12.864Z,60.91
2023-02-22T12:32:50.709Z,60.88
2023-02-22T12:35:37.403Z,61.48
2023-02-22T12:38:25.860Z,59.92
2023-02-22T12:40:57.107Z,59.45
2023-02-22T12:43:35.607Z,59.65
2023-02-22T12:46:21.220Z,59.29
2023-02-22T12:49:00.718Z,58.67
2023-02-22T12:51:55.533Z,58.01
2023-02-22T12:54:31.781Z,57.60
2023-02-22T12:57:09.923Z,56.94
2023-02-22T12:59:47.753Z,56.29
2023-02-22T13:02:37.000Z,56.51
2023-02-22T13:05:03.823Z,56.07
2023-02-22T13:07:46.566Z,56.28
2023-02-22T13:10:19.307Z,56.94
2023-02-22T13:12:52.536Z,56.57
2023-02-22T13:15:42.876Z,56.69
2023-02-22T13:18:19.298Z,56.03
2023-02-22T13:20:59.037Z,57.03
2023-02-22T13:23:39.060Z,57.91
2023-02-22T13:26:36.243Z,58.41
2023-02-22T13:29:13.794Z,58.71
2023-02-22T13:31:54.857Z,59.41
2023-02-22T13:34:45.515Z,59.01
2023-02-22T13:37:27.809Z,59.43
2023-02-22T13:40:16.877Z,60.13
2023-02-22T13:42:59.703Z,60.18
2023-02-22T13:45:50.939Z,60.37
2023-02-22T13:48:33.916Z,60.95
2023-02-22T13:51:30.188Z,61.34
2023-02-22T13:54:07.543Z,61.64
2023-02-22T13:56:34.832Z,61.81
2023-02-22T13:59:04.268Z,61.19
2023-02-22T14:01:47.927Z,61.25
2023-02-22T14:04:22.880Z,61.57
2023-02-22T14:07:25.810Z,60.74
2023-02-22T14:09:57.502Z,59.81
2023-02-22T14:12:30.256Z,58.60
2023-02-22T14:15:28.733Z,57.66
2023-02-22T14:18:02.274Z,57.73
2023-02-22T14:20:37.118Z,56.49
2023-02-22T14:23:25.817Z,55.06
2023-02-22T14:25:53.527Z,54.90
2023-02-22T14:28:37.325Z,54.85
2023-02-22T14:31:25.513Z,55.46
2023-02-22T14:34:13.967Z,55.63
2023-02-22T14:37:08.022Z,55.73
2023-02-22T14:39:51.203Z,56.01
2023-02-22T14:42:34.023Z,55.92
2023-02-22T14:45:37.001Z,55.60
2023-02-22T14:48:46.966Z,56.45
2023-02-22T14:51:34.114Z,56.37
2023-02-22T14:54:42.148Z,57.35
2023-02-22T14:57:35.927Z,57.66
2023-02-22T15:00:29.633Z,58.21
2023-02-22T15:03:06.907Z,58.36
2023-02-22T15:05:45.842Z,58.62
2023-02-22T15:08:31.597Z,59.09
2023-02-22T15:11:52.347Z,59.66
2023-02-22T15:14:43.783Z,60.20
2023-02-22T15:17:54.534Z,60.57
2023-02-22T15:20:54.623Z,60.77
2023-02-22T15:23:32.751Z,60.76
2023-02-22T15:26:07.823Z,61.24
2023-02-22T15:29:04.638Z,61.76
2023-02-22T15:31:39.265Z,61.96
2023-02-22T15:34:24.647Z,62.26
2023-02-22T15:36:58.745Z,62.76
2023-02-22T15:39:33.172Z,62.88
2023-02-22T15:42:05.980Z,63.22
2023-02-22T15:44:40.153Z,63.41
2023-02-22T15:47:21.055Z,63.69
2023-02-22T15:50:21.317Z,64.13
2023-02-22T15:52:59.465Z,64.61
2023-02-22T15:55:38.269Z,65.20
2023-02-22T15:58:16.959Z,65.76
2023-02-22T16:00:47.093Z,66.40
2023-02-22T16:03:16.794Z,66.83
2023-02-22T16:05:49.503Z,67.44
2023-02-22T16:08:19.408Z,67.94
2023-02-22T16:11:02.331Z,68.63
2023-02-22T16:13:33.174Z,69.27
2023-02-22T16:16:23.589Z,69.76
2023-02-22T16:18:51.527Z,70.55
2023-02-22T16:21:23.642Z,71.21
2023-02-22T16:24:01.349Z,71.98
2023-02-22T16:26:34.446Z,72.47
2023-02-22T16:29:07.494Z,73.33
2023-02-22T16:31:36.976Z,74.00
2023-02-22T16:34:09.072Z,74.63
2023-02-22T16:36:45.479Z,75.17
2023-02-22T16:39:19.597Z,75.74
2023-02-22T16:41:46.706Z,76.72
2023-02-22T16:44:13.699Z,77.76
2023-02-22T16:46:41.950Z,78.81
2023-02-22T16:49:13.148Z,79.64
2023-02-22T16:51:47.578Z,80.26
2023-02-22T16:54:19.753Z,81.06
2023-02-22T16:56:46.477Z,81.40
2023-02-22T16:59:15.413Z,81.83
2023-02-22T17:01:42.961Z,82.37
2023-02-22T17:04:15.934Z,82.72
2023-02-22T17:06:42.689Z,83.28
2023-02-22T17:09:10.017Z,83.51
2023-02-22T17:11:37.910Z,83.76
2023-02-22T17:14:05.828Z,84.07
2023-02-22T17:16:32.873Z,84.09
2023-02-22T17:19:00.157Z,84.25
2023-02-22T17:21:27.130Z,84.54
2023-02-22T17:23:54.069Z,85.01
2023-02-22T17:26:20.868Z,85.57
2023-02-22T17:28:47.544Z,85.96
2023-02-22T17:31:26.557Z,86.70
2023-02-22T17:33:55.034Z,87.50
2023-02-22T17:36:23.478Z,87.58
2023-02-22T17:38:50.228Z,88.06
2023-02-22T17:41:16.713Z,88.13
2023-02-22T17:43:43.777Z,88.47
2023-02-22T17:46:10.591Z,88.77
2023-02-22T17:48:38.194Z,88.95
2023-02-22T17:51:06.917Z,89.06
2023-02-22T17:53:33.976Z,89.24
2023-02-22T17:56:06.127Z,89.66
2023-02-22T17:58:33.270Z,89.99
2023-02-22T18:01:00.277Z,90.27
2023-02-22T18:03:29.049Z,90.44
2023-02-22T18:05:58.018Z,90.68
2023-02-22T18:08:29.770Z,90.77
2023-02-22T18:10:56.901Z,90.63
2023-02-22T18:13:26.461Z,90.85
2023-02-22T18:15:53.699Z,90.99
2023-02-22T18:18:22.207Z,91.23
2023-02-22T18:20:51.606Z,91.46
2023-02-22T18:23:22.264Z,91.62
2023-02-22T18:26:08.967Z,91.75
2023-02-22T18:28:37.616Z,92.05
2023-02-22T18:31:15.702Z,92.32
2023-02-22T18:33:43.665Z,92.64
2023-02-22T18:36:14.206Z,92.81
2023-02-22T18:38:43.010Z,93.18
2023-02-22T18:41:12.234Z,93.23
2023-02-22T18:43:39.885Z,93.55
2023-02-22T18:46:15.043Z,93.62
2023-02-22T18:48:42.883Z,93.70
2023-02-22T18:51:11.792Z,93.91
2023-02-22T18:53:40.963Z,94.26
2023-02-22T18:56:10.532Z,94.05
2023-02-22T18:58:38.845Z,94.34
2023-02-22T19:01:07.279Z,94.65
2023-02-22T19:03:38.378Z,94.64
2023-02-22T19:06:10.694Z,94.84
2023-02-22T19:08:42.518Z,94.95
2023-02-22T19:11:19.057Z,95.42
2023-02-22T19:13:47.488Z,95.56
2023-02-22T19:16:16.558Z,96.02
2023-02-22T19:18:44.159Z,96.33
2023-02-22T19:21:13.892Z,96.05
2023-02-22T19:23:48.277Z,96.46
2023-02-22T19:26:20.618Z,96.52
2023-02-22T19:29:04.991Z,96.32
2023-02-22T19:31:33.922Z,96.36
2023-02-22T19:34:03.811Z,96.40
2023-02-22T19:36:35.317Z,96.53
2023-02-22T19:39:02.257Z,96.43
2023-02-22T19:41:29.604Z,96.15
2023-02-22T19:43:56.751Z,96.61
2023-02-22T19:46:24.902Z,96.49
2023-02-22T19:48:52.936Z,96.68
2023-02-22T19:51:26.386Z,96.77
2023-02-22T19:53:55.894Z,96.60
2023-02-22T19:56:27.226Z,97.05
2023-02-22T19:58:56.568Z,96.79
2023-02-22T20:01:26.423Z,96.68
2023-02-22T20:03:55.132Z,96.84
2023-02-22T20:06:26.297Z,97.26
2023-02-22T20:08:54.677Z,97.53
2023-02-22T20:11:22.843Z,97.68
2023-02-22T20:13:50.337Z,97.79
2023-02-22T20:16:17.299Z,97.66
2023-02-22T20:18:45.275Z,97.65
2023-02-22T20:21:18.657Z,97.66
2023-02-22T20:23:49.209Z,97.53
2023-02-22T20:26:26.434Z,97.35
2023-02-22T20:28:55.207Z,97.58
2023-02-22T20:31:23.043Z,97.40
2023-02-22T20:33:53.971Z,97.25
2023-02-22T20:36:24.219Z,97.40
2023-02-22T20:38:56.786Z,97.24
2023-02-22T20:41:26.987Z,97.28
2023-02-22T20:43:55.712Z,97.47
2023-02-22T20:46:23.840Z,97.15
2023-02-22T20:48:55.686Z,97.22
2023-02-22T20:51:23.371Z,97.44
2023-02-22T20:53:54.053Z,97.38
2023-02-22T20:56:23.817Z,97.48
2023-02-22T20:58:52.654Z,97.40
2023-02-22T21:01:20.832Z,97.18
2023-02-22T21:03:48.677Z,97.19
2023-02-22T21:06:17.036Z,97.77
2023-02-22T21:08:45.245Z,97.63
2023-02-22T21:11:14.628Z,97.72
2023-02-22T21:13:41.715Z,97.90
2023-02-22T21:16:15.258Z,98.10
2023-02-22T21:18:42.210Z,97.91
2023-02-22T21:21:10.434Z,98.18
2023-02-22T21:23:38.485Z,98.09
2023-02-22T21:26:05.334Z,98.71
2023-02-22T21:28:50.607Z,98.81
2023-02-22T21:31:19.188Z,98.91
2023-02-22T21:33:49.456Z,99.24
2023-02-22T21:36:16.549Z,99.11
2023-02-22T21:38:53.337Z,99.30
2023-02-22T21:41:21.615Z,99.46
2023-02-22T21:43:52.169Z,99.02
2023-02-22T21:46:20.019Z,99.20
2023-02-22T21:48:50.250Z,98.98
2023-02-22T21:51:19.970Z,98.95
2023-02-22T21:53:49.446Z,98.89
2023-02-22T21:56:19.005Z,98.63
2023-02-22T21:58:47.039Z,98.75
2023-02-22T22:01:17.587Z,98.55
2023-02-22T22:03:45.830Z,98.59
2023-02-22T22:06:13.960Z,98.09
2023-02-22T22:08:42.207Z,98.17
2023-02-22T22:11:14.875Z,97.99
2023-02-22T22:13:42.539Z,97.81
2023-02-22T22:16:18.624Z,98.16
2023-02-22T22:18:46.764Z,98.56
2023-02-22T22:21:22.672Z,98.48
2023-02-22T22:23:54.176Z,98.53
2023-02-22T22:26:24.443Z,98.86
2023-02-22T22:28:54.384Z,99.00
2023-02-22T22:31:23.722Z,98.94
2023-02-22T22:33:50.907Z,99.10
2023-02-22T22:36:21.240Z,99.30
2023-02-22T22:38:48.466Z,99.48
2023-02-22T22:41:17.665Z,99.59
2023-02-22T22:43:48.220Z,99.64
2023-02-22T22:46:16.825Z,99.77
2023-02-22T22:48:46.799Z,99.97
2023-02-22T22:51:21.200Z,99.84
2023-02-22T22:53:49.709Z,100.00
2023-02-22T22:56:57.237Z,100.00
2023-02-22T22:59:24.320Z,100.00
2023-02-22T23:01:52.356Z,100.00
2023-02-22T23:04:19.260Z,100.00
2023-02-22T23:06:49.866Z,100.00
2023-02-22T23:09:21.672Z,100.00
2023-02-22T23:11:56.995Z,100.00
2023-02-22T23:14:30.974Z,100.00
2023-02-22T23:17:03.141Z,99.89
2023-02-22T23:19:35.555Z,99.95
2023-02-22T23:22:05.223Z,99.99
2023-02-22T23:24:36.022Z,99.72
2023-02-22T23:27:06.912Z,99.72
2023-02-22T23:29:36.730Z,100.00
2023-02-22T23:32:05.750Z,100.00
2023-02-22T23:34:32.940Z,100.00
2023-02-22T23:36:59.882Z,100.00
2023-02-22T23:39:27.381Z,100.00
2023-02-22T23:42:01.719Z,100.00
2023-02-22T23:44:29.472Z,100.00
2023-02-22T23:46:56.874Z,100.00
2023-02-22T23:49:27.165Z,100.00
2023-02-22T23:51:54.059Z,100.00
2023-02-22T23:54:25.350Z,100.00
2023-02-22T23:57:02.415Z,100.00
2023-02-22T23:59:30.500Z,100.00
